createdAt,value
2023-05-16T00:34:36.068Z,8.19
2023-05-16T00:39:45.536Z,8.12
2023-05-16T00:44:55.381Z,8.12
2023-05-16T00:50:03.851Z,8.07
2023-05-16T00:55:12.257Z,8.07
2023-05-16T01:00:21.386Z,7.9
2023-05-16T01:05:30.685Z,7.9
2023-05-16T01:10:38.974Z,7.74
2023-05-16T01:15:49.002Z,7.74
2023-05-16T01:20:57.260Z,7.67
2023-05-16T01:26:07.019Z,7.67
2023-05-16T01:31:16.603Z,7.82
2023-05-16T01:36:25.836Z,7.82
2023-05-16T01:41:35.655Z,7.65
2023-05-16T01:46:44.477Z,7.65
2023-05-16T01:51:53.841Z,7.47
2023-05-16T01:57:04.261Z,7.47
2023-05-16T02:48:38.012Z,7.78
2023-05-16T02:53:47.779Z,7.78
2023-05-16T02:58:56.257Z,7.6
2023-05-16T03:04:07.276Z,7.6
2023-05-16T03:09:16.437Z,7.94
2023-05-16T03:14:24.902Z,7.94
2023-05-16T03:19:33.357Z,7.67
2023-05-16T03:24:42.849Z,7.67
2023-05-16T03:29:51.655Z,7.94
2023-05-16T03:35:00.187Z,7.94
2023-05-16T03:40:09.206Z,7.83
2023-05-16T04:26:30.655Z,7.89
2023-05-16T04:31:41.892Z,8.2
2023-05-16T04:36:52.082Z,8.2
2023-05-16T04:42:00.606Z,7.93
2023-05-16T04:47:09.059Z,7.93
2023-05-16T04:52:18.827Z,8.21
2023-05-16T04:57:27.934Z,8.21
2023-05-16T05:02:37.342Z,7.73
2023-05-16T05:07:46.161Z,7.73
2023-05-16T05:12:55.361Z,8.16
2023-05-16T05:18:05.999Z,8.16
2023-05-16T05:23:14.282Z,7.65
2023-05-16T05:28:22.658Z,7.79
2023-05-16T05:33:33.101Z,7.79
2023-05-16T05:38:41.544Z,8.28
2023-05-16T05:43:50.679Z,8.28
2023-05-16T05:48:59.768Z,7.9
2023-05-16T05:54:09.563Z,7.9
2023-05-16T05:59:18.684Z,7.67
2023-05-16T06:04:29.059Z,7.67
2023-05-16T06:56:00.260Z,8.1
2023-05-16T07:01:10.257Z,8.07
2023-05-16T07:06:19.211Z,8.07
2023-05-16T07:11:28.892Z,7.9
2023-05-16T07:16:38.380Z,7.9
2023-05-16T07:21:47.794Z,7.72
2023-05-16T07:26:56.274Z,7.72
2023-05-16T08:13:18.388Z,7.67
2023-05-16T08:18:26.854Z,7.67
2023-05-16T08:23:37.221Z,7.75
2023-05-16T08:28:45.702Z,7.75
2023-05-16T08:33:54.178Z,7.92
2023-05-16T08:39:03.327Z,7.98
2023-05-16T08:44:12.513Z,7.98
2023-05-16T08:49:20.954Z,7.81
2023-05-16T08:54:30.077Z,7.81
2023-05-16T08:59:38.517Z,7.79
2023-05-16T09:04:47.640Z,7.79
2023-05-16T09:09:58.020Z,7.85
2023-05-16T09:15:08.508Z,7.85
2023-05-16T09:20:18.234Z,7.81
2023-05-16T09:25:33.191Z,7.81
2023-05-16T09:30:39.590Z,7.76
2023-05-16T09:35:51.825Z,7.76
2023-05-16T09:41:00.042Z,7.69
2023-05-16T09:46:10.406Z,7.69
2023-05-16T09:51:39.143Z,7.74
2023-05-16T09:56:49.543Z,7.74
2023-05-16T10:02:00.041Z,7.64
2023-05-16T10:07:10.986Z,7.64
2023-05-16T10:12:22.668Z,7.63
2023-05-16T10:17:33.078Z,7.63
2023-05-16T10:22:42.195Z,7.71
2023-05-16T10:27:50.710Z,7.71
2023-05-16T10:32:59.505Z,7.66
2023-05-16T10:38:08.889Z,7.66
2023-05-16T10:43:17.478Z,7.55
2023-05-16T10:48:27.340Z,7.55
2023-05-16T10:53:36.931Z,7.63
2023-05-16T10:58:49.467Z,7.63
2023-05-16T11:04:01.066Z,7.67
2023-05-16T11:09:09.385Z,7.67
2023-05-16T11:14:18.490Z,7.58
2023-05-16T11:19:27.581Z,7.58
2023-05-16T11:24:36.827Z,7.79
2023-05-16T11:29:47.195Z,7.74
2023-05-16T11:34:56.244Z,7.74
2023-05-16T11:40:08.873Z,7.69
2023-05-16T12:27:24.457Z,7.64
2023-05-16T13:29:18.414Z,7.68
2023-05-16T13:34:26.817Z,7.48
2023-05-16T13:39:37.863Z,7.48
2023-05-16T13:44:48.292Z,7.55
2023-05-16T13:49:58.684Z,7.55
2023-05-16T13:55:08.425Z,7.75
2023-05-16T14:00:46.778Z,7.66
2023-05-16T14:05:28.598Z,7.66
2023-05-16T14:10:37.077Z,7.83
2023-05-16T14:15:47.323Z,7.83
2023-05-16T14:20:56.716Z,7.72
2023-05-16T14:26:08.083Z,7.72
2023-05-16T14:31:22.243Z,7.86
2023-05-16T14:36:27.160Z,7.86
2023-05-16T14:41:37.684Z,7.55
2023-05-16T14:46:48.925Z,7.55
2023-05-16T14:51:57.099Z,7.56
2023-05-16T14:57:06.222Z,7.56
2023-05-16T15:02:15.620Z,7.71
2023-05-16T15:07:41.060Z,7.71
2023-05-16T15:12:50.181Z,7.61
2023-05-16T15:18:00.329Z,7.61
2023-05-16T15:23:10.306Z,7.83
2023-05-16T15:28:23.015Z,7.83
2023-05-16T15:33:29.868Z,7.67
2023-05-16T15:38:39.633Z,7.67
2023-05-16T15:43:49.385Z,7.81
2023-05-16T15:48:57.893Z,7.81
2023-05-16T15:54:09.560Z,7.76
2023-05-16T15:59:18.042Z,7.76
2023-05-16T16:04:27.753Z,7.69
2023-05-16T16:09:36.925Z,7.69
2023-05-16T16:14:45.377Z,7.73
2023-05-16T16:19:54.493Z,7.73
2023-05-16T16:25:04.286Z,7.69
2023-05-16T17:11:30.284Z,7.63
2023-05-16T17:16:40.287Z,7.63
2023-05-16T17:21:49.888Z,7.72
2023-05-16T18:18:34.274Z,7.76
2023-05-16T18:23:43.619Z,7.9
2023-05-16T18:28:52.789Z,7.9
2023-05-16T18:34:01.350Z,7.78
2023-05-16T18:39:09.637Z,7.78
2023-05-16T18:44:18.868Z,8.02
2023-05-16T18:49:29.859Z,8.02
2023-05-16T18:54:39.628Z,7.72
2023-05-16T18:59:53.913Z,7.72
2023-05-16T19:05:02.630Z,7.63
2023-05-16T19:10:08.457Z,7.63
2023-05-16T19:15:17.434Z,7.54
2023-05-16T19:20:27.410Z,7.54
2023-05-16T19:25:36.312Z,7.83
2023-05-16T19:30:44.748Z,7.83
2023-05-16T19:35:53.936Z,7.65
2023-05-16T19:41:04.298Z,7.65
2023-05-16T19:46:14.667Z,7.74
2023-05-16T19:51:42.665Z,7.74
2023-05-16T19:56:36.736Z,7.69
2023-05-16T20:01:46.075Z,7.59
2023-05-16T20:06:56.243Z,7.59
2023-05-16T20:12:04.122Z,7.68
2023-05-16T20:17:17.032Z,7.68
2023-05-16T20:22:26.852Z,7.81
2023-05-16T20:27:35.318Z,7.81
2023-05-16T21:14:01.230Z,7.45
2023-05-16T21:19:11.040Z,7.45
2023-05-16T21:24:19.491Z,7.63
2023-05-16T21:29:28.566Z,7.63
2023-05-16T21:34:37.706Z,7.64
2023-05-16T21:39:46.294Z,7.64
2023-05-16T21:44:55.254Z,7.53
2023-05-16T21:50:04.450Z,7.53
2023-05-16T21:55:17.457Z,7.76
2023-05-16T22:26:14.678Z,7.62
2023-05-16T22:31:25.053Z,7.62
2023-05-16T22:57:15.163Z,7.48
2023-05-16T23:02:24.580Z,7.41
2023-05-16T23:07:33.401Z,7.41
2023-05-16T23:12:42.546Z,7.41
2023-05-16T23:17:52.862Z,7.41
2023-05-16T23:23:01.406Z,7.47
2023-05-16T23:28:11.129Z,7.47
2023-05-16T23:33:21.729Z,7.54
2023-05-16T23:38:30.005Z,7.54
2023-05-16T23:43:39.140Z,7.39
2023-05-16T23:59:07.134Z,7.35
